createdAt,value
2018-01-24T00:01:07.187Z,95.40
2018-01-24T00:03:34.784Z,95.40
2018-01-24T00:06:02.224Z,95.40
2018-01-24T00:08:29.668Z,95.30
2018-01-24T00:10:57.123Z,95.30
2018-01-24T00:13:24.562Z,95.30
2018-01-24T00:15:51.988Z,95.30
2018-01-24T00:18:19.709Z,95.30
2018-01-24T00:20:47.168Z,95.30
2018-01-24T00:23:14.620Z,95.30
2018-01-24T00:25:42.084Z,95.30
2018-01-24T00:28:09.520Z,95.20
2018-01-24T00:30:36.996Z,95.20
2018-01-24T00:33:04.760Z,95.10
2018-01-24T00:35:32.216Z,95.10
2018-01-24T00:37:59.658Z,95.10
2018-01-24T00:40:27.133Z,95.10
2018-01-24T00:42:54.596Z,95.10
2018-01-24T00:45:22.038Z,95.00
2018-01-24T00:47:49.724Z,95.00
2018-01-24T00:50:17.268Z,95.00
2018-01-24T00:52:44.692Z,94.90
2018-01-24T00:55:12.131Z,94.90
2018-01-24T00:57:40.359Z,94.80
2018-01-24T01:00:07.822Z,94.80
2018-01-24T01:02:35.568Z,94.80
2018-01-24T01:05:02.995Z,94.80
2018-01-24T01:07:30.433Z,94.80
2018-01-24T01:09:57.872Z,94.70
2018-01-24T01:12:25.319Z,94.70
2018-01-24T01:14:52.761Z,94.60
2018-01-24T01:17:20.524Z,94.60
2018-01-24T01:19:47.980Z,94.60
2018-01-24T01:22:15.419Z,94.50
2018-01-24T01:24:42.896Z,94.50
2018-01-24T01:27:10.352Z,94.40
2018-01-24T01:29:37.784Z,94.40
2018-01-24T01:32:05.268Z,94.40
2018-01-24T01:34:32.734Z,94.40
2018-01-24T01:37:00.185Z,94.40
2018-01-24T01:39:27.644Z,94.30
2018-01-24T01:41:55.091Z,94.40
2018-01-24T01:44:22.542Z,94.40
2018-01-24T01:46:50.212Z,94.30
2018-01-24T01:49:17.651Z,94.30
2018-01-24T01:51:45.080Z,94.30
2018-01-24T01:54:13.300Z,94.30
2018-01-24T01:56:40.752Z,94.30
2018-01-24T01:59:08.218Z,94.30
2018-01-24T02:01:35.981Z,94.30
2018-01-24T02:04:03.412Z,94.30
2018-01-24T02:06:30.844Z,94.30
2018-01-24T02:08:59.068Z,94.30
2018-01-24T02:11:26.501Z,94.30
2018-01-24T02:13:53.936Z,94.30
2018-01-24T02:16:22.146Z,94.30
2018-01-24T02:18:49.620Z,94.30
2018-01-24T02:21:17.071Z,94.40
2018-01-24T02:23:44.517Z,94.30
2018-01-24T02:26:11.954Z,94.60
2018-01-24T02:28:39.382Z,94.40
2018-01-24T02:31:07.216Z,94.40
2018-01-24T02:33:34.666Z,94.30
2018-01-24T02:36:02.103Z,94.40
2018-01-24T02:38:50.161Z,94.30
2018-01-24T02:41:17.607Z,94.30
2018-01-24T02:43:45.077Z,94.30
2018-01-24T02:46:12.540Z,94.30
2018-01-24T02:48:39.992Z,94.30
2018-01-24T02:51:07.556Z,94.50
2018-01-24T02:53:35.308Z,94.20
2018-01-24T02:56:02.749Z,94.10
2018-01-24T02:58:30.177Z,94.10
2018-01-24T03:00:58.407Z,94.10
2018-01-24T03:03:25.840Z,94.10
2018-01-24T03:05:53.268Z,94.10
2018-01-24T03:08:21.799Z,94.20
2018-01-24T03:10:49.353Z,94.20
2018-01-24T03:13:16.769Z,94.10
2018-01-24T03:15:44.984Z,94.20
2018-01-24T03:18:12.447Z,94.10
2018-01-24T03:20:39.900Z,94.10
2018-01-24T03:23:07.676Z,94.10
2018-01-24T03:25:35.119Z,94.20
2018-01-24T03:28:02.588Z,94.20
2018-01-24T03:30:30.143Z,94.20
2018-01-24T03:32:57.577Z,94.20
2018-01-24T03:35:25.060Z,94.20
2018-01-24T03:37:52.620Z,94.30
2018-01-24T03:40:20.076Z,94.30
2018-01-24T03:42:47.547Z,94.30
2018-01-24T03:45:15.293Z,94.30
2018-01-24T03:47:42.752Z,94.40
2018-01-24T03:50:10.208Z,94.40
2018-01-24T03:52:37.657Z,94.40
2018-01-24T03:55:05.120Z,94.50
2018-01-24T03:57:32.551Z,94.60
2018-01-24T04:00:00.230Z,94.60
2018-01-24T04:02:27.703Z,94.60
2018-01-24T04:04:55.149Z,94.70
2018-01-24T04:07:22.620Z,94.70
2018-01-24T04:09:50.057Z,94.70
2018-01-24T04:12:17.521Z,94.80
2018-01-24T04:14:45.290Z,94.80
2018-01-24T04:17:12.720Z,94.80
2018-01-24T04:19:40.208Z,94.80
2018-01-24T04:22:07.655Z,94.90
2018-01-24T04:24:35.102Z,94.90
2018-01-24T04:27:02.576Z,94.90
2018-01-24T04:29:30.344Z,94.90
2018-01-24T04:31:57.782Z,94.90
2018-01-24T04:34:25.250Z,94.90
2018-01-24T04:36:52.697Z,94.90
2018-01-24T04:39:20.128Z,94.90
2018-01-24T04:41:48.332Z,94.80
2018-01-24T04:44:16.108Z,94.80
2018-01-24T04:46:43.545Z,94.80
2018-01-24T04:49:11.028Z,94.80
2018-01-24T04:51:38.477Z,94.80
2018-01-24T04:54:05.922Z,94.80
2018-01-24T04:56:33.348Z,94.80
2018-01-24T04:59:01.564Z,94.80
2018-01-24T05:01:29.000Z,94.80
2018-01-24T05:03:56.438Z,94.80
2018-01-24T05:06:24.881Z,94.80
2018-01-24T05:08:52.317Z,94.80
2018-01-24T05:11:19.748Z,94.80
2018-01-24T05:13:47.224Z,94.80
2018-01-24T05:16:14.673Z,94.80
2018-01-24T05:18:42.152Z,94.80
2018-01-24T05:21:10.324Z,94.80
2018-01-24T05:23:37.780Z,94.80
2018-01-24T05:26:05.240Z,94.80
2018-01-24T05:28:32.690Z,94.80
2018-01-24T05:31:00.138Z,94.80
2018-01-24T05:33:27.580Z,94.80
2018-01-24T05:35:55.267Z,94.70
2018-01-24T05:38:22.740Z,94.80
2018-01-24T05:40:50.173Z,94.70
2018-01-24T05:43:17.608Z,94.70
2018-01-24T05:45:45.099Z,94.60
2018-01-24T05:48:12.557Z,94.60
2018-01-24T05:50:40.321Z,94.60
2018-01-24T05:53:07.779Z,94.60
2018-01-24T05:55:35.207Z,94.50
2018-01-24T05:58:02.689Z,94.50
2018-01-24T06:00:30.146Z,94.40
2018-01-24T06:02:57.594Z,94.40
2018-01-24T06:05:25.060Z,94.30
2018-01-24T06:07:52.625Z,94.30
2018-01-24T06:10:20.076Z,94.30
2018-01-24T06:12:47.769Z,94.20
2018-01-24T06:15:16.730Z,94.10
2018-01-24T06:17:44.188Z,94.10
2018-01-24T06:20:11.644Z,94.10
2018-01-24T06:22:39.102Z,94.00
2018-01-24T06:25:06.531Z,94.00
2018-01-24T06:27:33.976Z,94.00
2018-01-24T06:30:02.180Z,93.90
2018-01-24T06:32:29.611Z,93.90
2018-01-24T06:34:57.108Z,93.90
2018-01-24T06:37:24.564Z,93.90
2018-01-24T06:39:52.020Z,93.90
2018-01-24T06:42:19.493Z,93.80
2018-01-24T06:44:47.037Z,93.80
2018-01-24T06:47:14.472Z,93.80
2018-01-24T06:49:41.944Z,93.80
2018-01-24T06:52:09.385Z,93.80
2018-01-24T06:54:36.864Z,93.80
2018-01-24T06:57:04.632Z,93.70
2018-01-24T06:59:32.084Z,93.70
2018-01-24T07:01:59.511Z,93.60
2018-01-24T07:04:26.951Z,93.60
2018-01-24T07:06:55.144Z,93.50
2018-01-24T07:09:22.580Z,93.50
2018-01-24T07:11:50.783Z,93.50
2018-01-24T07:14:30.189Z,93.40
2018-01-24T07:16:57.704Z,93.40
2018-01-24T07:19:25.152Z,93.30
2018-01-24T07:21:52.591Z,93.30
2018-01-24T07:24:20.078Z,93.30
2018-01-24T07:26:47.496Z,93.30
2018-01-24T07:29:14.965Z,93.20
2018-01-24T07:31:42.404Z,93.10
2018-01-24T07:34:10.596Z,93.00
2018-01-24T07:36:38.029Z,93.00
2018-01-24T07:39:06.256Z,92.90
2018-01-24T07:41:33.696Z,92.90
2018-01-24T07:44:01.154Z,92.90
2018-01-24T07:46:28.604Z,92.90
2018-01-24T07:48:56.036Z,92.80
2018-01-24T07:51:23.457Z,92.80
2018-01-24T07:53:51.688Z,92.80
2018-01-24T07:56:19.140Z,92.70
2018-01-24T07:58:46.591Z,92.80
2018-01-24T08:01:14.024Z,92.70
2018-01-24T08:03:41.451Z,92.70
2018-01-24T08:06:08.884Z,92.70
2018-01-24T08:08:37.094Z,92.70
2018-01-24T08:11:04.516Z,92.70
2018-01-24T08:13:32.739Z,92.70
2018-01-24T08:16:00.168Z,92.70
2018-01-24T08:18:27.648Z,92.70
2018-01-24T08:20:55.095Z,92.70
2018-01-24T08:23:22.768Z,92.60
2018-01-24T08:25:50.201Z,92.60
2018-01-24T08:28:17.680Z,92.60
2018-01-24T08:30:45.136Z,92.50
2018-01-24T08:33:12.604Z,92.50
2018-01-24T08:35:40.048Z,92.50
2018-01-24T08:38:07.584Z,92.40
2018-01-24T08:40:35.030Z,92.40
2018-01-24T08:43:03.236Z,92.30
2018-01-24T12:48:04.724Z,85.70
2018-01-24T12:50:32.172Z,85.50
2018-01-24T12:52:59.632Z,85.40
2018-01-24T12:55:27.396Z,85.40
2018-01-24T12:57:54.847Z,85.30
2018-01-24T13:00:22.308Z,85.30
2018-01-24T13:02:49.767Z,84.90
2018-01-24T13:05:17.224Z,84.70
2018-01-24T13:07:44.680Z,84.60
2018-01-24T13:10:12.118Z,84.50
2018-01-24T13:12:39.605Z,84.40
2018-01-24T13:15:07.031Z,84.20
2018-01-24T13:17:34.523Z,84.20
2018-01-24T13:20:01.944Z,84.10
2018-01-24T13:22:29.384Z,84.00
2018-01-24T13:24:57.651Z,83.80
2018-01-24T13:27:25.059Z,83.70
2018-01-24T13:29:52.494Z,83.80
2018-01-24T13:32:19.928Z,83.70
2018-01-24T13:34:48.124Z,83.70
2018-01-24T13:37:15.641Z,83.70
2018-01-24T13:39:43.058Z,83.70
2018-01-24T13:42:10.519Z,83.70
2018-01-24T13:44:37.941Z,83.80
2018-01-24T13:47:05.432Z,83.50
2018-01-24T13:49:32.889Z,83.30
2018-01-24T13:52:00.348Z,83.20
2018-01-24T13:54:27.796Z,83.10
2018-01-24T13:56:55.260Z,83.10
2018-01-24T13:59:22.697Z,83.10
2018-01-24T14:01:50.124Z,83.00
2018-01-24T14:04:18.329Z,83.60
2018-01-24T14:06:45.752Z,82.90
2018-01-24T14:09:14.332Z,82.70
2018-01-24T14:11:41.739Z,82.70
2018-01-24T14:14:09.173Z,82.60
2018-01-24T14:16:36.612Z,82.50
2018-01-24T14:19:04.832Z,82.70
2018-01-24T14:21:32.268Z,82.60
2018-01-24T14:23:59.718Z,82.60
2018-01-24T14:26:27.204Z,82.50
2018-01-24T14:28:54.659Z,82.40
2018-01-24T14:31:22.092Z,82.30
2018-01-24T14:33:49.568Z,82.20
2018-01-24T14:36:17.032Z,82.30
2018-01-24T14:38:44.800Z,82.20
2018-01-24T14:41:12.248Z,82.20
2018-01-24T14:43:39.678Z,82.00
2018-01-24T14:46:07.168Z,82.00
2018-01-24T14:48:34.603Z,82.10
2018-01-24T14:51:02.024Z,81.90
2018-01-24T14:53:29.468Z,82.60
2018-01-24T14:55:56.904Z,82.10
2018-01-24T14:58:24.336Z,82.00
2018-01-24T15:00:51.770Z,81.90
2018-01-24T15:03:19.962Z,81.90
2018-01-24T15:05:47.444Z,81.90
2018-01-24T15:08:15.119Z,81.80
2018-01-24T15:10:42.736Z,81.80
2018-01-24T15:13:10.160Z,81.90
2018-01-24T15:15:37.598Z,81.80
2018-01-24T15:18:05.025Z,81.70
2018-01-24T15:20:32.488Z,81.70
2018-01-24T15:23:01.763Z,81.70
2018-01-24T15:25:29.345Z,81.60
2018-01-24T15:27:56.752Z,81.60
2018-01-24T15:30:24.193Z,81.50
2018-01-24T15:32:51.622Z,81.40
2018-01-24T15:35:19.048Z,81.00
2018-01-24T15:37:46.524Z,81.00
2018-01-24T15:40:13.932Z,81.20
2018-01-24T15:42:41.448Z,81.10
2018-01-24T15:45:08.893Z,80.60
2018-01-24T15:47:36.312Z,81.00
2018-01-24T15:50:04.527Z,80.90
2018-01-24T15:52:31.957Z,80.80
2018-01-24T15:55:00.158Z,80.60
2018-01-24T15:57:27.587Z,80.50
2018-01-24T15:59:55.896Z,80.50
2018-01-24T16:02:23.328Z,80.50
2018-01-24T16:04:50.808Z,80.40
2018-01-24T16:07:18.245Z,80.30
2018-01-24T16:09:45.728Z,80.20
2018-01-24T16:12:13.160Z,80.00
2018-01-24T16:14:40.604Z,79.90
2018-01-24T16:17:08.807Z,80.00
2018-01-24T16:19:36.272Z,79.90
2018-01-24T16:22:03.728Z,79.80
2018-01-24T16:24:31.165Z,79.80
2018-01-24T16:26:58.648Z,79.80
2018-01-24T16:29:26.092Z,79.70
2018-01-24T16:31:53.560Z,79.70
2018-01-24T16:34:20.992Z,79.60
2018-01-24T16:36:48.445Z,79.50
2018-01-24T16:39:15.935Z,79.50
2018-01-24T16:41:43.329Z,79.70
2018-01-24T16:44:10.769Z,79.90
2018-01-24T16:46:38.395Z,80.10
2018-01-24T16:49:05.806Z,80.20
2018-01-24T16:51:33.544Z,80.20
2018-01-24T16:54:01.084Z,80.30
2018-01-24T16:56:28.535Z,80.40
2018-01-24T16:58:56.096Z,80.30
2018-01-24T17:01:23.552Z,80.10
2018-01-24T17:03:51.014Z,80.00
2018-01-24T17:06:18.453Z,79.80
2018-01-24T17:08:45.899Z,79.60
2018-01-24T17:11:13.324Z,79.40
2018-01-24T17:13:40.855Z,79.30
2018-01-24T17:16:08.271Z,79.60
2018-01-24T17:18:35.759Z,79.20
2018-01-24T17:21:03.220Z,79.10
2018-01-24T17:23:30.672Z,79.00
2018-01-24T17:25:58.100Z,79.00
2018-01-24T17:28:25.580Z,78.90
2018-01-24T17:30:53.015Z,78.80
2018-01-24T17:33:20.441Z,78.80
2018-01-24T17:35:48.672Z,78.80
2018-01-24T17:38:16.121Z,78.70
2018-01-24T17:40:43.532Z,78.70
2018-01-24T17:43:11.040Z,78.50
2018-01-24T17:45:38.479Z,78.30
2018-01-24T17:48:05.964Z,78.40
2018-01-24T17:50:33.401Z,78.40
2018-01-24T17:53:00.837Z,78.30
2018-01-24T17:55:28.264Z,78.20
2018-01-24T17:57:55.692Z,78.30
2018-01-24T18:00:23.116Z,78.30
2018-01-24T18:02:50.604Z,78.20
2018-01-24T18:05:18.049Z,78.00
2018-01-24T18:07:45.608Z,77.90
2018-01-24T18:10:13.076Z,77.80
2018-01-24T18:12:40.506Z,77.90
2018-01-24T18:15:07.992Z,77.80
2018-01-24T18:17:35.548Z,77.80
2018-01-24T18:20:02.984Z,77.80
2018-01-24T18:22:30.412Z,77.70
2018-01-24T18:24:58.612Z,77.90
2018-01-24T18:27:26.406Z,77.80
2018-01-24T18:29:53.912Z,78.00
2018-01-24T18:32:21.347Z,78.00
2018-01-24T18:34:49.028Z,78.10
2018-01-24T18:37:16.456Z,78.00
2018-01-24T18:39:43.880Z,77.80
2018-01-24T18:42:11.401Z,77.80
2018-01-24T18:44:38.862Z,78.50
2018-01-24T18:47:06.317Z,77.80
2018-01-24T18:49:33.784Z,77.70
2018-01-24T18:52:01.210Z,78.30
2018-01-24T18:54:28.632Z,77.40
2018-01-24T18:56:56.087Z,77.40
2018-01-24T18:59:23.604Z,77.30
2018-01-24T19:01:51.032Z,77.70
2018-01-24T19:04:18.457Z,78.20
2018-01-24T19:06:45.884Z,78.60
2018-01-24T19:09:13.335Z,78.70
2018-01-24T19:11:40.779Z,78.80
2018-01-24T19:14:08.237Z,78.90
2018-01-24T19:16:36.418Z,78.70
2018-01-24T19:19:03.856Z,78.60
2018-01-24T19:21:31.332Z,78.50
2018-01-24T19:23:58.781Z,78.30
2018-01-24T19:26:26.460Z,78.40
2018-01-24T19:28:53.928Z,78.30
2018-01-24T19:31:21.369Z,78.20
2018-01-24T19:33:48.824Z,78.20
2018-01-24T19:36:16.252Z,78.00
2018-01-24T19:38:43.684Z,78.00
2018-01-24T19:41:11.915Z,78.60
2018-01-24T19:43:39.464Z,77.90
2018-01-24T19:46:06.880Z,78.00
2018-01-24T19:48:34.646Z,78.10
2018-01-24T19:51:02.876Z,78.30
2018-01-24T19:53:30.292Z,78.10
2018-01-24T19:55:57.737Z,78.20
2018-01-24T19:58:25.935Z,78.70
2018-01-24T20:00:53.360Z,78.70
2018-01-24T20:03:21.586Z,79.20
2018-01-24T20:05:49.015Z,79.20
2018-01-24T20:08:16.447Z,79.70
2018-01-24T20:10:44.057Z,80.50
2018-01-24T20:13:11.496Z,82.30
2018-01-24T20:15:38.960Z,83.10
2018-01-24T20:18:07.448Z,85.50
2018-01-24T20:20:34.892Z,85.50
2018-01-24T20:23:02.316Z,86.20
2018-01-24T20:25:30.525Z,86.80
2018-01-24T20:27:57.999Z,86.80
2018-01-24T20:30:25.428Z,87.20
2018-01-24T20:32:52.872Z,87.60
2018-01-24T20:35:20.292Z,87.90
2018-01-24T20:37:47.777Z,88.30
2018-01-24T20:40:15.228Z,88.60
2018-01-24T20:42:42.684Z,89.90
2018-01-24T20:45:10.108Z,90.10
2018-01-24T20:47:37.546Z,90.10
2018-01-24T20:50:05.060Z,90.20
2018-01-24T20:52:32.487Z,90.30
2018-01-24T20:54:59.980Z,90.30
2018-01-24T20:57:27.403Z,90.30
2018-01-24T20:59:54.892Z,90.40
2018-01-24T21:02:22.330Z,90.50
2018-01-24T21:04:49.800Z,90.60
2018-01-24T21:07:17.228Z,90.70
2018-01-24T21:09:44.708Z,90.70
2018-01-24T21:12:12.134Z,90.80
2018-01-24T21:14:40.331Z,91.00
2018-01-24T21:17:07.764Z,91.00
2018-01-24T21:19:35.981Z,91.10
2018-01-24T21:22:03.397Z,91.00
2018-01-24T21:24:31.088Z,91.10
2018-01-24T21:26:58.509Z,91.10
2018-01-24T21:29:38.700Z,91.30
2018-01-24T21:32:18.140Z,91.30
2018-01-24T21:34:57.576Z,91.30
2018-01-24T21:37:25.004Z,91.40
2018-01-24T21:39:53.192Z,91.50
2018-01-24T21:42:20.632Z,91.50
2018-01-24T21:44:48.837Z,91.50
2018-01-24T21:47:16.296Z,91.50
2018-01-24T21:49:43.785Z,91.60
2018-01-24T21:52:11.215Z,91.60
2018-01-24T21:54:38.641Z,91.60
2018-01-24T21:57:06.092Z,91.60
2018-01-24T21:59:34.296Z,91.70
2018-01-24T22:02:01.708Z,91.70
2018-01-24T22:04:29.944Z,91.80
2018-01-24T22:06:57.388Z,91.70
2018-01-24T22:09:24.841Z,91.70
2018-01-24T22:11:52.257Z,91.70
2018-01-24T22:14:20.441Z,91.80
2018-01-24T22:16:48.628Z,91.70
2018-01-24T22:19:16.112Z,91.70
2018-01-24T22:21:43.560Z,91.70
2018-01-24T22:24:10.984Z,91.70
2018-01-24T22:26:39.180Z,91.80
2018-01-24T22:29:06.615Z,91.90
2018-01-24T22:31:34.799Z,91.90
2018-01-24T22:34:02.280Z,91.90
2018-01-24T22:36:29.696Z,92.00
2018-01-24T22:38:57.906Z,92.00
2018-01-24T22:41:25.311Z,92.00
2018-01-24T22:43:52.832Z,92.10
2018-01-24T22:46:20.279Z,92.10
2018-01-24T22:48:47.734Z,92.10
2018-01-24T22:51:20.697Z,92.10
2018-01-24T22:53:48.894Z,92.20
2018-01-24T22:56:16.355Z,92.20
2018-01-24T22:58:43.823Z,92.50
2018-01-24T23:01:11.265Z,92.20
2018-01-24T23:03:38.731Z,92.30
2018-01-24T23:06:06.160Z,92.30
2018-01-24T23:08:33.945Z,92.40
2018-01-24T23:11:01.344Z,92.40
2018-01-24T23:13:28.763Z,92.40
2018-01-24T23:15:56.199Z,92.30
2018-01-24T23:18:23.676Z,92.30
2018-01-24T23:20:51.136Z,92.40
2018-01-24T23:23:18.688Z,92.40
2018-01-24T23:25:46.154Z,92.40
2018-01-24T23:28:13.565Z,92.40
2018-01-24T23:30:41.776Z,92.40
2018-01-24T23:33:09.184Z,92.40
2018-01-24T23:35:37.519Z,92.40
2018-01-24T23:38:04.976Z,92.30
2018-01-24T23:40:32.435Z,92.40
2018-01-24T23:42:59.822Z,92.40
2018-01-24T23:45:28.020Z,92.30
2018-01-24T23:47:56.278Z,92.30
2018-01-24T23:50:23.792Z,92.30
2018-01-24T23:52:51.247Z,92.30
2018-01-24T23:55:18.708Z,92.30
2018-01-24T23:57:46.134Z,92.30
